createdAt,value
2023-12-09T00:00:09.260Z,58.80
2023-12-09T00:02:38.132Z,58.80
2023-12-09T00:05:07.882Z,58.80
2023-12-09T00:07:36.582Z,58.90
2023-12-09T00:10:06.101Z,58.90
2023-12-09T00:12:34.815Z,58.90
2023-12-09T00:15:06.065Z,58.90
2023-12-09T00:17:35.407Z,59.10
2023-12-09T00:20:06.180Z,59.00
2023-12-09T00:22:35.158Z,59.00
2023-12-09T00:25:04.215Z,58.90
2023-12-09T00:27:32.913Z,59.00
2023-12-09T00:30:01.699Z,59.00
2023-12-09T00:32:32.110Z,59.00
2023-12-09T00:35:01.913Z,59.10
2023-12-09T00:37:30.615Z,59.10
2023-12-09T00:39:59.308Z,59.00
2023-12-09T00:42:28.196Z,59.00
2023-12-09T00:44:57.052Z,59.00
2023-12-09T00:47:25.936Z,59.00
2023-12-09T00:49:56.194Z,59.00
2023-12-09T00:52:25.204Z,59.10
2023-12-09T00:54:54.387Z,59.00
2023-12-09T00:57:25.743Z,59.00
2023-12-09T00:59:55.087Z,59.10
2023-12-09T01:02:24.012Z,59.10
2023-12-09T01:04:53.224Z,59.20
2023-12-09T01:07:23.470Z,59.20
2023-12-09T01:09:52.379Z,59.70
2023-12-09T01:12:21.120Z,59.20
2023-12-09T01:14:49.921Z,59.20
2023-12-09T01:17:18.737Z,59.80
2023-12-09T01:19:47.437Z,59.10
2023-12-09T01:22:16.269Z,59.10
2023-12-09T01:24:46.305Z,59.10
2023-12-09T01:27:15.068Z,59.30
2023-12-09T01:29:44.028Z,59.30
2023-12-09T01:32:12.747Z,59.30
2023-12-09T01:34:42.122Z,59.30
2023-12-09T01:37:10.869Z,59.30
2023-12-09T01:39:41.388Z,59.30
2023-12-09T01:42:11.845Z,59.40
2023-12-09T01:44:40.560Z,59.50
2023-12-09T01:47:09.794Z,59.40
2023-12-09T01:49:39.272Z,59.50
2023-12-09T01:52:08.718Z,59.50
2023-12-09T01:54:37.845Z,59.50
2023-12-09T01:57:07.496Z,59.50
2023-12-09T01:59:39.232Z,59.60
2023-12-09T02:02:08.940Z,59.60
2023-12-09T02:04:38.063Z,59.50
2023-12-09T02:07:06.694Z,59.50
2023-12-09T02:09:35.767Z,59.50
2023-12-09T02:12:12.289Z,59.50
2023-12-09T02:14:51.790Z,59.70
2023-12-09T02:17:24.721Z,59.90
2023-12-09T02:19:53.647Z,59.60
2023-12-09T02:22:22.377Z,59.60
2023-12-09T02:24:52.545Z,59.70
2023-12-09T02:27:27.838Z,59.70
2023-12-09T02:30:04.438Z,59.70
2023-12-09T02:32:37.122Z,59.70
2023-12-09T02:35:08.714Z,59.80
2023-12-09T02:37:38.159Z,59.70
2023-12-09T02:40:11.461Z,59.70
2023-12-09T02:42:41.175Z,59.90
2023-12-09T02:45:12.325Z,59.80
2023-12-09T02:47:41.102Z,59.80
2023-12-09T02:50:10.530Z,59.90
2023-12-09T02:52:39.168Z,59.90
2023-12-09T02:55:11.816Z,59.90
2023-12-09T02:57:40.525Z,60.10
2023-12-09T03:00:11.286Z,59.90
2023-12-09T03:02:40.235Z,60.00
2023-12-09T03:05:09.786Z,60.00
2023-12-09T03:07:38.498Z,60.00
2023-12-09T03:10:09.762Z,60.00
2023-12-09T03:12:38.401Z,60.00
2023-12-09T03:15:09.127Z,60.00
2023-12-09T03:17:39.961Z,60.10
2023-12-09T03:20:10.541Z,60.10
2023-12-09T03:22:39.294Z,60.00
2023-12-09T03:25:10.670Z,60.00
2023-12-09T03:27:39.494Z,60.00
2023-12-09T03:30:10.096Z,59.90
2023-12-09T03:32:40.871Z,59.90
2023-12-09T03:35:11.229Z,60.00
2023-12-09T03:37:39.947Z,59.90
2023-12-09T03:40:12.756Z,59.80
2023-12-09T03:42:41.454Z,59.90
2023-12-09T03:45:10.971Z,59.70
2023-12-09T03:47:39.764Z,59.80
2023-12-09T03:50:09.964Z,59.80
2023-12-09T03:52:39.305Z,59.80
2023-12-09T03:55:10.683Z,59.80
2023-12-09T03:57:39.360Z,59.80
2023-12-09T04:00:10.528Z,59.90
2023-12-09T04:02:39.125Z,59.90
2023-12-09T04:05:11.276Z,59.80
2023-12-09T04:07:39.961Z,59.90
2023-12-09T04:10:11.410Z,59.90
2023-12-09T04:12:40.082Z,60.10
2023-12-09T04:15:11.285Z,60.00
2023-12-09T04:17:42.039Z,60.00
2023-12-09T04:20:13.103Z,60.00
2023-12-09T04:22:42.007Z,60.10
2023-12-09T04:25:12.159Z,60.10
2023-12-09T04:27:41.861Z,60.10
2023-12-09T04:30:12.984Z,60.00
2023-12-09T04:32:42.680Z,60.00
2023-12-09T04:35:12.209Z,60.00
2023-12-09T04:37:40.927Z,60.00
2023-12-09T04:40:13.910Z,60.00
2023-12-09T04:42:43.797Z,59.90
2023-12-09T04:45:13.236Z,59.80
2023-12-09T04:47:42.307Z,59.80
2023-12-09T04:50:12.367Z,59.80
2023-12-09T04:52:41.173Z,59.80
2023-12-09T04:55:11.718Z,59.80
2023-12-09T04:57:40.367Z,59.90
2023-12-09T05:00:12.193Z,59.90
2023-12-09T05:02:41.152Z,59.90
2023-12-09T05:05:10.564Z,59.80
2023-12-09T05:07:39.589Z,59.80
2023-12-09T05:10:10.058Z,59.80
2023-12-09T05:12:40.332Z,59.90
2023-12-09T05:15:11.047Z,59.90
2023-12-09T05:17:39.889Z,59.90
2023-12-09T05:20:11.145Z,59.90
2023-12-09T05:22:40.009Z,59.90
2023-12-09T05:25:09.924Z,59.90
2023-12-09T05:27:40.634Z,60.00
2023-12-09T05:30:11.288Z,60.00
2023-12-09T05:32:40.075Z,59.90
2023-12-09T05:35:09.820Z,60.60
2023-12-09T05:37:38.857Z,59.90
2023-12-09T05:40:09.557Z,59.90
2023-12-09T05:42:39.671Z,59.90
2023-12-09T05:45:10.241Z,60.00
2023-12-09T05:47:38.885Z,59.90
2023-12-09T05:50:09.200Z,59.80
2023-12-09T05:52:37.922Z,59.80
2023-12-09T05:55:07.795Z,59.80
2023-12-09T05:57:36.548Z,59.90
2023-12-09T06:00:11.301Z,59.90
2023-12-09T06:02:42.290Z,60.00
2023-12-09T06:05:11.511Z,60.00
2023-12-09T06:07:40.255Z,60.00
2023-12-09T06:10:11.059Z,60.00
2023-12-09T06:12:43.232Z,60.00
2023-12-09T06:15:13.667Z,60.00
2023-12-09T06:17:42.487Z,60.10
2023-12-09T06:20:12.368Z,60.80
2023-12-09T06:22:41.191Z,60.00
2023-12-09T06:25:10.907Z,60.10
2023-12-09T06:27:39.748Z,60.30
2023-12-09T06:30:13.280Z,60.20
2023-12-09T06:32:43.473Z,60.30
2023-12-09T06:35:12.588Z,60.30
2023-12-09T06:37:41.442Z,60.30
2023-12-09T06:40:11.881Z,60.40
2023-12-09T06:42:40.758Z,61.40
2023-12-09T06:45:10.792Z,60.50
2023-12-09T06:47:40.940Z,60.50
2023-12-09T06:50:10.274Z,60.70
2023-12-09T06:52:38.976Z,60.70
2023-12-09T06:55:08.917Z,60.60
2023-12-09T06:57:38.024Z,60.50
2023-12-09T07:00:09.740Z,60.40
2023-12-09T07:02:48.786Z,60.40
2023-12-09T07:05:27.690Z,60.40
2023-12-09T07:07:56.593Z,60.40
2023-12-09T07:10:25.311Z,60.40
2023-12-09T07:12:54.074Z,60.60
2023-12-09T07:15:22.969Z,60.60
2023-12-09T07:17:51.731Z,60.70
2023-12-09T07:20:20.399Z,60.70
2023-12-09T07:22:50.452Z,61.60
2023-12-09T07:25:19.481Z,60.80
2023-12-09T07:27:48.209Z,60.70
2023-12-09T07:30:17.572Z,60.70
2023-12-09T07:32:46.496Z,60.80
2023-12-09T07:35:18.184Z,60.80
2023-12-09T07:37:48.346Z,60.80
2023-12-09T07:40:17.550Z,61.70
2023-12-09T07:42:46.306Z,61.00
2023-12-09T07:45:15.161Z,60.90
2023-12-09T07:47:43.840Z,61.00
2023-12-09T07:50:12.864Z,61.00
2023-12-09T07:52:42.202Z,61.10
2023-12-09T07:55:11.689Z,61.10
2023-12-09T07:57:41.816Z,61.10
2023-12-09T08:00:13.098Z,61.20
2023-12-09T08:02:41.729Z,61.20
2023-12-09T08:05:10.857Z,61.20
2023-12-09T08:07:39.617Z,61.20
2023-12-09T08:10:09.850Z,61.20
2023-12-09T08:12:38.517Z,61.30
2023-12-09T08:15:10.948Z,61.20
2023-12-09T08:17:39.650Z,61.40
2023-12-09T08:20:10.394Z,61.20
2023-12-09T08:22:40.152Z,61.20
2023-12-09T08:25:10.983Z,61.20
2023-12-09T08:27:40.142Z,61.30
2023-12-09T08:30:13.518Z,61.30
2023-12-09T08:32:43.072Z,61.50
2023-12-09T08:35:13.092Z,61.30
2023-12-09T08:37:42.154Z,61.40
2023-12-09T08:40:13.771Z,61.30
2023-12-09T08:42:44.373Z,61.40
2023-12-09T08:45:17.245Z,61.30
2023-12-09T08:47:46.442Z,61.40
2023-12-09T08:50:22.735Z,61.30
2023-12-09T08:52:55.116Z,61.20
2023-12-09T08:55:24.100Z,61.20
2023-12-09T08:57:54.069Z,61.20
2023-12-09T09:00:27.310Z,61.20
2023-12-09T09:02:57.512Z,61.30
2023-12-09T09:05:26.464Z,61.20
2023-12-09T09:07:55.183Z,61.20
2023-12-09T09:10:24.290Z,61.20
2023-12-09T09:12:53.158Z,61.20
2023-12-09T09:15:23.864Z,61.30
2023-12-09T09:17:52.696Z,61.40
2023-12-09T09:20:21.613Z,61.30
2023-12-09T09:22:50.591Z,61.30
2023-12-09T09:25:19.210Z,61.40
2023-12-09T09:27:49.588Z,61.40
2023-12-09T09:30:21.259Z,61.40
2023-12-09T09:32:51.532Z,61.40
2023-12-09T09:35:20.783Z,61.50
2023-12-09T09:37:49.780Z,61.40
2023-12-09T09:40:18.768Z,61.40
2023-12-09T09:42:58.067Z,61.40
2023-12-09T09:45:31.960Z,61.60
2023-12-09T09:48:07.361Z,61.40
2023-12-09T09:50:42.950Z,61.70
2023-12-09T09:53:15.032Z,61.60
2023-12-09T09:55:44.393Z,61.70
2023-12-09T09:58:14.463Z,61.60
2023-12-09T10:00:43.492Z,61.60
2023-12-09T10:03:14.867Z,61.60
2023-12-09T10:05:44.601Z,61.60
2023-12-09T10:08:13.256Z,61.50
2023-12-09T10:10:42.449Z,61.60
2023-12-09T10:13:12.502Z,61.60
2023-12-09T10:15:41.144Z,61.50
2023-12-09T10:18:16.340Z,61.60
2023-12-09T10:20:49.572Z,61.80
2023-12-09T10:23:19.576Z,61.70
2023-12-09T10:25:50.150Z,61.60
2023-12-09T10:28:18.967Z,61.70
2023-12-09T10:30:48.639Z,61.70
2023-12-09T10:33:19.575Z,61.80
2023-12-09T10:35:48.550Z,61.70
2023-12-09T10:38:18.878Z,61.70
2023-12-09T10:40:47.494Z,62.00
2023-12-09T10:43:16.641Z,62.00
2023-12-09T10:45:45.582Z,61.80
2023-12-09T10:48:14.551Z,61.80
2023-12-09T10:50:47.351Z,61.80
2023-12-09T10:53:16.286Z,62.00
2023-12-09T10:55:45.288Z,61.70
2023-12-09T10:58:15.969Z,61.70
2023-12-09T11:00:46.850Z,61.80
2023-12-09T11:03:15.894Z,61.60
2023-12-09T11:05:52.594Z,62.40
2023-12-09T11:08:22.367Z,61.70
2023-12-09T11:10:51.229Z,61.60
2023-12-09T11:13:21.036Z,61.50
2023-12-09T11:15:49.758Z,61.50
2023-12-09T11:18:18.782Z,61.50
2023-12-09T11:20:53.071Z,61.30
2023-12-09T11:23:22.748Z,61.30
2023-12-09T11:25:52.181Z,61.20
2023-12-09T11:28:23.265Z,61.00
2023-12-09T11:30:58.311Z,60.80
2023-12-09T11:33:27.936Z,60.90
2023-12-09T11:35:58.515Z,61.00
2023-12-09T11:38:27.879Z,60.90
2023-12-09T11:40:56.731Z,60.90
2023-12-09T11:43:25.691Z,61.00
2023-12-09T11:45:55.651Z,61.00
2023-12-09T11:48:26.069Z,61.10
2023-12-09T11:50:55.353Z,61.00
2023-12-09T11:53:25.372Z,60.80
2023-12-09T11:55:54.043Z,61.00
2023-12-09T11:58:22.693Z,60.80
2023-12-09T12:00:53.059Z,61.00
2023-12-09T12:03:21.849Z,61.20
2023-12-09T12:05:50.591Z,61.00
2023-12-09T12:08:19.302Z,61.00
2023-12-09T12:10:49.692Z,61.00
2023-12-09T12:13:18.581Z,61.00
2023-12-09T12:15:48.183Z,61.00
2023-12-09T12:18:17.064Z,61.00
2023-12-09T12:20:47.119Z,60.90
2023-12-09T12:23:26.260Z,60.70
2023-12-09T12:26:02.764Z,60.60
2023-12-09T12:28:31.445Z,60.40
2023-12-09T12:31:01.715Z,60.40
2023-12-09T12:33:32.207Z,60.30
2023-12-09T12:36:02.418Z,60.40
2023-12-09T12:38:31.490Z,60.30
2023-12-09T12:41:01.605Z,60.20
2023-12-09T12:43:33.047Z,60.40
2023-12-09T12:46:02.057Z,60.30
2023-12-09T12:48:30.945Z,60.10
2023-12-09T12:51:00.611Z,60.10
2023-12-09T12:53:29.284Z,60.10
2023-12-09T12:55:57.942Z,60.00
2023-12-09T12:58:27.966Z,60.00
2023-12-09T13:00:56.678Z,60.00
2023-12-09T13:03:26.802Z,59.90
2023-12-09T13:05:55.692Z,60.00
2023-12-09T13:08:24.399Z,59.90
2023-12-09T13:10:53.069Z,59.90
2023-12-09T13:13:21.950Z,59.80
2023-12-09T13:15:52.129Z,59.90
2023-12-09T13:18:22.856Z,59.90
2023-12-09T13:20:53.365Z,59.80
2023-12-09T13:23:22.050Z,59.80
2023-12-09T13:25:50.751Z,59.70
2023-12-09T13:28:19.440Z,59.70
2023-12-09T13:30:48.117Z,59.70
2023-12-09T13:33:18.284Z,59.70
2023-12-09T13:35:47.014Z,59.70
2023-12-09T13:38:16.306Z,59.70
2023-12-09T13:40:47.635Z,59.60
2023-12-09T13:43:16.282Z,59.60
2023-12-09T13:45:45.043Z,59.60
2023-12-09T13:48:15.090Z,59.60
2023-12-09T13:50:45.189Z,59.60
2023-12-09T13:53:13.920Z,59.40
2023-12-09T13:55:42.872Z,60.20
2023-12-09T13:58:11.523Z,59.50
2023-12-09T14:00:40.231Z,59.50
2023-12-09T14:03:08.922Z,59.60
2023-12-09T14:05:37.721Z,59.60
2023-12-09T14:08:08.038Z,59.50
2023-12-09T14:10:36.867Z,59.60
2023-12-09T14:13:05.734Z,59.70
2023-12-09T14:15:34.675Z,59.60
2023-12-09T14:18:03.985Z,59.60
2023-12-09T14:20:34.853Z,59.50
2023-12-09T14:23:04.647Z,59.50
2023-12-09T14:25:34.871Z,59.50
2023-12-09T14:28:04.425Z,59.60
2023-12-09T14:30:33.303Z,59.70
2023-12-09T14:33:02.134Z,59.60
2023-12-09T14:35:30.995Z,59.60
2023-12-09T14:37:59.895Z,59.70
2023-12-09T14:40:28.541Z,59.70
2023-12-09T14:42:58.566Z,59.70
2023-12-09T14:45:27.295Z,59.70
2023-12-09T14:48:01.653Z,59.80
2023-12-09T14:50:36.125Z,59.70
2023-12-09T14:53:04.875Z,59.70
2023-12-09T14:55:33.565Z,59.80
2023-12-09T14:58:03.620Z,59.70
2023-12-09T15:00:32.669Z,59.70
2023-12-09T15:03:01.585Z,59.80
2023-12-09T15:05:30.305Z,59.80
2023-12-09T15:07:59.093Z,59.80
2023-12-09T15:10:27.741Z,59.80
2023-12-09T15:12:56.416Z,59.80
2023-12-09T15:15:29.317Z,59.80
2023-12-09T15:17:58.911Z,59.80
2023-12-09T15:20:27.822Z,59.80
2023-12-09T15:22:57.613Z,59.80
2023-12-09T15:25:26.382Z,59.80
2023-12-09T15:27:55.192Z,59.80
2023-12-09T15:30:24.268Z,59.80
2023-12-09T15:32:54.383Z,59.70
2023-12-09T15:35:23.109Z,59.80
2023-12-09T15:37:51.748Z,59.80
2023-12-09T15:40:20.439Z,59.80
2023-12-09T15:42:49.136Z,59.80
2023-12-09T15:45:17.898Z,59.70
2023-12-09T15:47:46.602Z,59.80
2023-12-09T15:50:16.876Z,59.80
2023-12-09T15:52:45.446Z,59.90
2023-12-09T15:55:14.487Z,59.80
2023-12-09T15:57:43.895Z,59.70
2023-12-09T16:00:15.311Z,59.70
2023-12-09T16:02:44.067Z,59.60
2023-12-09T16:05:14.126Z,59.60
2023-12-09T16:07:44.818Z,59.60
2023-12-09T16:10:13.963Z,59.70
2023-12-09T16:12:46.246Z,59.60
2023-12-09T16:15:16.010Z,59.70
2023-12-09T16:17:44.844Z,59.80
2023-12-09T16:20:14.043Z,59.70
2023-12-09T16:22:44.291Z,59.70
2023-12-09T16:25:12.912Z,59.70
2023-12-09T16:27:41.716Z,59.60
2023-12-09T16:30:11.987Z,59.50
2023-12-09T16:32:41.045Z,59.50
2023-12-09T16:35:10.533Z,59.60
2023-12-09T16:37:39.570Z,59.60
2023-12-09T16:40:12.167Z,59.60
2023-12-09T16:42:40.983Z,59.50
2023-12-09T16:45:12.623Z,59.50
2023-12-09T16:47:43.021Z,59.50
2023-12-09T16:50:12.441Z,59.30
2023-12-09T16:52:41.623Z,59.30
2023-12-09T16:55:11.942Z,59.40
2023-12-09T16:57:40.688Z,59.30
2023-12-09T17:00:11.293Z,59.40
2023-12-09T17:02:40.291Z,59.30
2023-12-09T17:05:11.360Z,59.50
2023-12-09T17:07:40.208Z,59.50
2023-12-09T17:10:11.298Z,59.60
2023-12-09T17:12:41.474Z,59.60
2023-12-09T17:15:10.858Z,59.50
2023-12-09T17:17:40.098Z,59.50
2023-12-09T17:20:10.599Z,59.60
2023-12-09T17:22:39.801Z,59.70
2023-12-09T17:25:09.753Z,59.60
2023-12-09T17:27:39.955Z,59.60
2023-12-09T17:30:11.700Z,59.60
2023-12-09T17:32:40.489Z,59.60
2023-12-09T17:35:10.374Z,59.60
2023-12-09T17:37:39.176Z,59.80
2023-12-09T17:40:09.989Z,59.90
2023-12-09T17:42:40.509Z,60.00
2023-12-09T17:45:10.899Z,60.00
2023-12-09T17:47:39.696Z,60.00
2023-12-09T17:50:09.160Z,60.00
2023-12-09T17:52:38.465Z,60.10
2023-12-09T17:55:08.021Z,60.00
2023-12-09T17:57:36.765Z,60.00
2023-12-09T18:00:08.786Z,60.00
2023-12-09T18:02:37.645Z,61.10
2023-12-09T18:05:07.663Z,60.10
2023-12-09T18:07:36.663Z,60.00
2023-12-09T18:10:06.561Z,60.00
2023-12-09T18:12:35.905Z,60.10
2023-12-09T18:15:07.694Z,60.10
2023-12-09T18:17:36.633Z,60.20
2023-12-09T18:20:06.581Z,60.20
2023-12-09T18:22:35.236Z,60.20
2023-12-09T18:25:04.058Z,60.20
2023-12-09T18:27:33.556Z,60.40
2023-12-09T18:30:02.337Z,60.60
2023-12-09T18:32:37.615Z,60.70
2023-12-09T18:35:10.385Z,60.80
2023-12-09T18:37:40.005Z,60.80
2023-12-09T18:40:11.050Z,60.80
2023-12-09T18:42:39.829Z,60.90
2023-12-09T18:45:09.563Z,60.80
2023-12-09T18:47:41.453Z,60.90
2023-12-09T18:50:11.233Z,60.80
2023-12-09T18:52:39.979Z,60.80
2023-12-09T18:55:09.993Z,61.60
2023-12-09T18:57:39.857Z,60.80
2023-12-09T19:00:10.171Z,60.80
2023-12-09T19:02:40.264Z,60.90
2023-12-09T19:05:11.033Z,61.10
2023-12-09T19:07:39.894Z,60.90
2023-12-09T19:10:09.410Z,61.10
2023-12-09T19:12:38.132Z,61.00
2023-12-09T19:15:09.024Z,61.20
2023-12-09T19:17:39.236Z,61.20
2023-12-09T19:20:09.551Z,61.20
2023-12-09T19:22:38.224Z,61.20
2023-12-09T19:25:08.562Z,61.20
2023-12-09T19:27:37.513Z,61.40
2023-12-09T19:30:07.978Z,61.40
2023-12-09T19:32:36.771Z,61.40
2023-12-09T19:35:08.190Z,61.50
2023-12-09T19:37:37.267Z,61.70
2023-12-09T19:40:07.134Z,61.60
2023-12-09T19:42:35.908Z,61.80
2023-12-09T19:45:06.927Z,61.80
2023-12-09T19:47:35.937Z,61.80
2023-12-09T19:50:06.816Z,61.80
2023-12-09T19:52:35.801Z,62.00
2023-12-09T19:55:04.535Z,62.00
2023-12-09T19:57:33.907Z,62.10
2023-12-09T20:00:02.814Z,62.20
2023-12-09T20:02:33.655Z,62.20
2023-12-09T20:05:04.484Z,62.20
2023-12-09T20:07:34.574Z,62.20
2023-12-09T20:10:03.348Z,62.40
2023-12-09T20:12:32.223Z,62.40
2023-12-09T20:15:05.063Z,62.40
2023-12-09T20:17:33.776Z,62.40
2023-12-09T20:20:02.593Z,62.40
2023-12-09T20:22:31.943Z,62.40
2023-12-09T20:25:02.826Z,62.50
2023-12-09T20:27:31.579Z,62.70
2023-12-09T20:30:00.274Z,62.50
2023-12-09T20:32:29.205Z,62.50
2023-12-09T20:34:58.266Z,62.50
2023-12-09T20:37:26.902Z,62.60
2023-12-09T20:39:58.317Z,62.60
2023-12-09T20:42:28.707Z,62.50
2023-12-09T20:44:57.551Z,62.80
2023-12-09T20:47:26.167Z,63.50
2023-12-09T20:49:54.909Z,63.30
2023-12-09T20:52:23.574Z,63.20
2023-12-09T20:54:52.281Z,63.00
2023-12-09T20:57:20.982Z,63.10
2023-12-09T20:59:51.056Z,63.00
2023-12-09T21:02:19.651Z,63.10
2023-12-09T21:04:48.396Z,63.00
2023-12-09T21:07:16.966Z,62.90
2023-12-09T21:09:45.883Z,63.00
2023-12-09T21:12:14.615Z,63.10
2023-12-09T21:14:43.359Z,64.00
2023-12-09T21:17:13.402Z,63.20
2023-12-09T21:19:42.197Z,63.20
2023-12-09T21:22:12.740Z,63.20
2023-12-09T21:24:41.871Z,63.20
2023-12-09T21:27:10.969Z,63.20
2023-12-09T21:29:39.639Z,63.20
2023-12-09T21:32:09.845Z,63.40
2023-12-09T21:34:40.040Z,63.50
2023-12-09T21:37:08.876Z,63.60
2023-12-09T21:39:38.314Z,63.60
2023-12-09T21:42:08.698Z,63.60
2023-12-09T21:44:37.450Z,63.70
2023-12-09T21:47:06.504Z,63.70
2023-12-09T21:49:35.277Z,64.70
2023-12-09T21:52:06.006Z,63.90
2023-12-09T21:54:36.391Z,64.20
2023-12-09T21:57:05.798Z,64.00
2023-12-09T21:59:36.363Z,64.00
2023-12-09T22:02:05.683Z,64.00
2023-12-09T22:04:34.390Z,64.10
2023-12-09T22:07:04.719Z,64.00
2023-12-09T22:09:33.475Z,64.10
2023-12-09T22:12:02.211Z,64.00
2023-12-09T22:14:31.211Z,64.10
2023-12-09T22:17:01.230Z,64.00
2023-12-09T22:19:30.032Z,64.10
2023-12-09T22:21:58.837Z,64.10
2023-12-09T22:24:29.392Z,64.10
2023-12-09T22:26:58.157Z,64.20
2023-12-09T22:29:27.420Z,64.00
2023-12-09T22:31:56.136Z,64.00
2023-12-09T22:34:24.896Z,64.10
2023-12-09T22:36:53.559Z,64.20
2023-12-09T22:39:22.457Z,64.20
2023-12-09T22:41:52.541Z,64.20
2023-12-09T22:44:21.293Z,64.40
2023-12-09T22:46:49.967Z,64.20
2023-12-09T22:49:19.343Z,64.20
2023-12-09T22:51:48.194Z,64.40
2023-12-09T22:54:16.911Z,64.20
2023-12-09T22:56:45.824Z,64.30
2023-12-09T22:59:16.048Z,64.40
2023-12-09T23:01:46.329Z,64.40
2023-12-09T23:04:15.109Z,64.20
2023-12-09T23:06:44.557Z,64.30
2023-12-09T23:09:14.343Z,64.30
2023-12-09T23:11:42.994Z,64.20
2023-12-09T23:14:13.487Z,64.20
2023-12-09T23:16:44.752Z,64.20
2023-12-09T23:19:14.598Z,64.20
2023-12-09T23:21:44.474Z,64.10
2023-12-09T23:24:13.371Z,64.00
2023-12-09T23:26:42.113Z,64.00
2023-12-09T23:29:11.259Z,63.90
2023-12-09T23:31:42.054Z,63.90
2023-12-09T23:34:12.561Z,63.90
2023-12-09T23:36:41.419Z,63.90
2023-12-09T23:39:10.433Z,63.80
2023-12-09T23:41:39.120Z,63.80
2023-12-09T23:44:07.821Z,63.90
2023-12-09T23:46:36.525Z,63.90
2023-12-09T23:49:06.733Z,63.80
2023-12-09T23:51:37.121Z,63.70
2023-12-09T23:54:06.324Z,63.60
2023-12-09T23:56:35.016Z,63.60
2023-12-09T23:59:04.165Z,63.40
